| time (UTC) | temp C | wind direction | speed KPH | gust KPH | rain 1hr cm | rain 24hr cm | rain mn cm | humidity % | barometer mb |
| 20260510190746 | 20 | 34 | 9.7 | 11.3 | 0.00 | 0.00 | 0.00 | 46 | 1019.2 |
| 20260510190242 | 21 | 22 | 14.5 | 16.1 | 0.00 | 0.00 | 0.00 | 45 | 1019.3 |
| 20260510185739 | 21 | 0 | 12.9 | 14.5 | 0.00 | 0.00 | 0.00 | 45 | 1019.3 |
| 20260510185237 | 21 | 27 | 9.7 | 12.9 | 0.00 | 0.00 | 0.00 | 45 | 1019.3 |
| 20260510184733 | 20 | 39 | 11.3 | 12.9 | 0.00 | 0.00 | 0.00 | 46 | 1019.5 |
| 20260510184230 | 21 | 33 | 9.7 | 11.3 | 0.00 | 0.00 | 0.00 | 46 | 1019.5 |
| 20260510183725 | 20 | 48 | 9.7 | 11.3 | 0.00 | 0.00 | 0.00 | 46 | 1019.4 |
| 20260510183220 | 21 | 76 | 8.0 | 11.3 | 0.00 | 0.00 | 0.00 | 46 | 1019.5 |
| 20260510182717 | 21 | 11 | 12.9 | 14.5 | 0.00 | 0.00 | 0.00 | 45 | 1019.6 |
| 20260510182213 | 21 | 42 | 20.9 | 24.1 | 0.00 | 0.00 | 0.00 | 45 | 1019.4 |
| 20260510181710 | 20 | 18 | 12.9 | 16.1 | 0.00 | 0.00 | 0.00 | 46 | 1019.4 |
| 20260510181207 | 20 | 37 | 20.9 | 24.1 | 0.00 | 0.00 | 0.00 | 46 | 1019.5 |
| 20260510180702 | 20 | 23 | 19.3 | 22.5 | 0.00 | 0.00 | 0.00 | 45 | 1019.4 |
| 20260510180200 | 20 | 51 | 12.9 | 16.1 | 0.00 | 0.00 | 0.00 | 44 | 1019.4 |
| 20260510175656 | 20 | 10 | 14.5 | 17.7 | 0.00 | 0.00 | 0.00 | 44 | 1019.3 |
| 20260510175152 | 20 | 39 | 14.5 | 16.1 | 0.00 | 0.00 | 0.00 | 44 | 1019.6 |
| 20260510174649 | 20 | 32 | 17.7 | 20.9 | 0.00 | 0.00 | 0.00 | 44 | 1019.3 |
| 20260510174147 | 20 | 10 | 17.7 | 20.9 | 0.00 | 0.00 | 0.00 | 45 | 1019.6 |
| 20260510173643 | 20 | 18 | 12.9 | 14.5 | 0.00 | 0.00 | 0.00 | 44 | 1019.4 |
| 20260510173139 | 20 | 19 | 16.1 | 22.5 | 0.00 | 0.00 | 0.00 | 45 | 1019.6 |
| 20260510172634 | 20 | 10 | 17.7 | 22.5 | 0.00 | 0.00 | 0.00 | 46 | 1019.3 |
| 20260510172131 | 20 | 38 | 19.3 | 25.7 | 0.00 | 0.00 | 0.00 | 46 | 1019.2 |
| 20260510171628 | 20 | 14 | 9.7 | 12.9 | 0.00 | 0.00 | 0.00 | 48 | 1019.2 |
| 20260510171126 | 20 | 14 | 20.9 | 25.7 | 0.00 | 0.00 | 0.00 | 47 | 1019.3 |
| 20260510170621 | 20 | 359 | 14.5 | 16.1 | 0.00 | 0.00 | 0.00 | 48 | 1019.2 |
| 20260510170118 | 20 | 44 | 16.1 | 17.7 | 0.00 | 0.00 | 0.00 | 49 | 1018.9 |
| 20260510165614 | 20 | 27 | 14.5 | 16.1 | 0.00 | 0.00 | 0.00 | 49 | 1018.8 |
| 20260510165109 | 20 | 30 | 22.5 | 33.8 | 0.00 | 0.00 | 0.00 | 48 | 1018.8 |
| 20260510164608 | 20 | 28 | 14.5 | 16.1 | 0.00 | 0.00 | 0.00 | 49 | 1018.8 |
| 20260510164104 | 20 | 30 | 17.7 | 20.9 | 0.00 | 0.00 | 0.00 | 50 | 1019.0 |
| 20260510163559 | 20 | 15 | 16.1 | 17.7 | 0.00 | 0.00 | 0.00 | 49 | 1018.7 |
| 20260510163056 | 20 | 4 | 16.1 | 16.1 | 0.00 | 0.00 | 0.00 | 49 | 1018.7 |
| 20260510162551 | 20 | 25 | 17.7 | 22.5 | 0.00 | 0.00 | 0.00 | 52 | 1018.9 |
| 20260510162047 | 19 | 8 | 16.1 | 17.7 | 0.00 | 0.00 | 0.00 | 53 | 1018.7 |
| 20260510161543 | 19 | 38 | 8.0 | 12.9 | 0.00 | 0.00 | 0.00 | 52 | 1018.8 |
| 20260510161040 | 18 | 36 | 17.7 | 20.9 | 0.00 | 0.00 | 0.00 | 53 | 1018.7 |
| 20260510160538 | 18 | 39 | 16.1 | 20.9 | 0.00 | 0.00 | 0.00 | 54 | 1019.0 |
| 20260510160037 | 18 | 34 | 16.1 | 25.7 | 0.00 | 0.00 | 0.00 | 55 | 1018.6 |
| 20260510155534 | 18 | 54 | 14.5 | 17.7 | 0.00 | 0.00 | 0.00 | 57 | 1018.7 |
| 20260510155030 | 18 | 53 | 11.3 | 16.1 | 0.00 | 0.00 | 0.00 | 58 | 1018.5 |
| 20260510154526 | 18 | 24 | 9.7 | 12.9 | 0.00 | 0.00 | 0.00 | 60 | 1018.4 |
| 20260510154021 | 17 | 19 | 9.7 | 14.5 | 0.00 | 0.00 | 0.00 | 61 | 1018.4 |
| 20260510153516 | 17 | 21 | 17.7 | 17.7 | 0.00 | 0.00 | 0.00 | 61 | 1018.3 |
| 20260510153013 | 17 | 37 | 19.3 | 22.5 | 0.00 | 0.00 | 0.00 | 61 | 1018.1 |
| 20260510152510 | 17 | 47 | 14.5 | 17.7 | 0.00 | 0.00 | 0.00 | 60 | 1018.0 |
| 20260510152000 | 17 | 83 | 14.5 | 17.7 | 0.00 | 0.00 | 0.00 | 63 | 1017.6 |
| 20260510151457 | 17 | 27 | 14.5 | 17.7 | 0.00 | 0.00 | 0.00 | 64 | 1017.6 |
| 20260510150954 | 17 | 49 | 11.3 | 14.5 | 0.00 | 0.00 | 0.00 | 64 | 1017.5 |
| 20260510150449 | 17 | 42 | 16.1 | 20.9 | 0.00 | 0.00 | 0.00 | 66 | 1017.5 |
| 20260510145946 | 17 | 60 | 17.7 | 25.7 | 0.00 | 0.00 | 0.00 | 68 | 1017.4 |
| 20260510145442 | 17 | 66 | 17.7 | 22.5 | 0.00 | 0.00 | 0.00 | 70 | 1017.6 |
| 20260510144938 | 17 | 91 | 14.5 | 20.9 | 0.00 | 0.00 | 0.00 | 71 | 1017.6 |
| 20260510144435 | 17 | 53 | 11.3 | 12.9 | 0.00 | 0.00 | 0.00 | 73 | 1017.6 |
| 20260510143931 | 16 | 15 | 14.5 | 16.1 | 0.00 | 0.00 | 0.00 | 74 | 1017.8 |
| 20260510143426 | 16 | 65 | 12.9 | 14.5 | 0.00 | 0.00 | 0.00 | 75 | 1017.9 |
| 20260510142924 | 16 | 44 | 16.1 | 20.9 | 0.00 | 0.00 | 0.00 | 76 | 1017.6 |
| 20260510142421 | 16 | 37 | 19.3 | 25.7 | 0.00 | 0.00 | 0.00 | 76 | 1017.8 |
| 20260510141917 | 16 | 29 | 9.7 | 11.3 | 0.00 | 0.00 | 0.00 | 76 | 1017.6 |
| 20260510141414 | 16 | 26 | 19.3 | 22.5 | 0.00 | 0.00 | 0.00 | 76 | 1018.0 |
| 20260510140911 | 16 | 36 | 14.5 | 17.7 | 0.00 | 0.00 | 0.00 | 76 | 1018.0 |
| 20260510140408 | 16 | 45 | 9.7 | 12.9 | 0.00 | 0.00 | 0.00 | 76 | 1018.1 |
| 20260510135907 | 16 | 6 | 9.7 | 12.9 | 0.00 | 0.00 | 0.00 | 76 | 1018.0 |
| 20260510135403 | 16 | 36 | 9.7 | 11.3 | 0.00 | 0.00 | 0.00 | 76 | 1017.9 |
| 20260510134900 | 16 | 16 | 11.3 | 14.5 | 0.00 | 0.00 | 0.00 | 76 | 1017.6 |
| 20260510134357 | 16 | 15 | 9.7 | 11.3 | 0.00 | 0.00 | 0.00 | 77 | 1017.6 |
| 20260510133853 | 16 | 35 | 14.5 | 17.7 | 0.00 | 0.00 | 0.00 | 76 | 1017.5 |
| 20260510133349 | 16 | 68 | 4.8 | 9.7 | 0.00 | 0.00 | 0.00 | 77 | 1017.5 |
| 20260510132845 | 16 | 21 | 12.9 | 14.5 | 0.00 | 0.00 | 0.00 | 77 | 1017.3 |
| 20260510132343 | 17 | 16 | 11.3 | 14.5 | 0.00 | 0.00 | 0.00 | 77 | 1017.3 |
| 20260510131840 | 17 | 58 | 17.7 | 22.5 | 0.00 | 0.00 | 0.00 | 76 | 1017.3 |
| 20260510131337 | 17 | 36 | 11.3 | 17.7 | 0.00 | 0.00 | 0.00 | 76 | 1017.0 |
| 20260510130834 | 17 | 32 | 14.5 | 20.9 | 0.00 | 0.00 | 0.00 | 77 | 1016.9 |
| 20260510130331 | 16 | 59 | 14.5 | 20.9 | 0.00 | 0.00 | 0.00 | 77 | 1017.0 |
| 20260510125827 | 16 | 25 | 8.0 | 9.7 | 0.00 | 0.00 | 0.00 | 78 | 1016.8 |
| 20260510125323 | 16 | 7 | 8.0 | 11.3 | 0.00 | 0.00 | 0.00 | 78 | 1016.5 |
| 20260510124820 | 16 | 53 | 9.7 | 11.3 | 0.00 | 0.00 | 0.00 | 78 | 1016.5 |
| 20260510124318 | 16 | 67 | 14.5 | 16.1 | 0.00 | 0.00 | 0.00 | 78 | 1016.4 |
| 20260510123813 | 16 | 34 | 9.7 | 12.9 | 0.00 | 0.00 | 0.00 | 78 | 1016.2 |
| 20260510123309 | 16 | 114 | 9.7 | 11.3 | 0.00 | 0.00 | 0.00 | 78 | 1016.2 |
| 20260510122805 | 16 | 28 | 8.0 | 11.3 | 0.00 | 0.00 | 0.00 | 78 | 1016.1 |
| 20260510122301 | 16 | 69 | 9.7 | 12.9 | 0.00 | 0.00 | 0.00 | 79 | 1016.2 |
| 20260510121758 | 16 | 17 | 12.9 | 22.5 | 0.00 | 0.00 | 0.00 | 80 | 1016.0 |
| 20260510121256 | 16 | 27 | 12.9 | 12.9 | 0.00 | 0.00 | 0.00 | 80 | 1015.8 |
| 20260510120753 | 16 | 17 | 14.5 | 16.1 | 0.00 | 0.00 | 0.00 | 80 | 1015.5 |
| 20260510120249 | 16 | 63 | 9.7 | 12.9 | 0.00 | 0.00 | 0.00 | 80 | 1015.7 |
| 20260510115745 | 16 | 119 | 8.0 | 9.7 | 0.00 | 0.00 | 0.00 | 80 | 1015.5 |
| 20260510115243 | 16 | 58 | 6.4 | 9.7 | 0.00 | 0.00 | 0.00 | 80 | 1015.1 |
| 20260510114738 | 16 | 61 | 14.5 | 20.9 | 0.00 | 0.00 | 0.00 | 79 | 1015.2 |
| 20260510114236 | 16 | 21 | 8.0 | 11.3 | 0.00 | 0.00 | 0.00 | 79 | 1015.3 |
| 20260510113731 | 16 | 66 | 6.4 | 9.7 | 0.00 | 0.00 | 0.00 | 79 | 1015.2 |
| 20260510113228 | 16 | 46 | 9.7 | 12.9 | 0.00 | 0.00 | 0.00 | 79 | 1015.0 |
| 20260510112724 | 16 | 45 | 8.0 | 11.3 | 0.00 | 0.00 | 0.00 | 79 | 1014.7 |
| 20260510112221 | 16 | 44 | 8.0 | 11.3 | 0.00 | 0.00 | 0.00 | 79 | 1014.7 |
| 20260510111717 | 16 | 66 | 8.0 | 9.7 | 0.00 | 0.00 | 0.00 | 79 | 1014.9 |
| 20260510111215 | 16 | 38 | 8.0 | 12.9 | 0.00 | 0.00 | 0.00 | 79 | 1014.7 |
| 20260510110714 | 16 | 27 | 9.7 | 11.3 | 0.00 | 0.00 | 0.00 | 79 | 1014.6 |
| 20260510110212 | 16 | 54 | 4.8 | 4.8 | 0.00 | 0.00 | 0.00 | 79 | 1014.5 |
| 20260510105712 | 16 | 26 | 9.7 | 11.3 | 0.00 | 0.00 | 0.00 | 79 | 1014.3 |
| 20260510105207 | 16 | 40 | 11.3 | 14.5 | 0.00 | 0.00 | 0.00 | 78 | 1014.4 |
| 20260510104704 | 16 | 30 | 8.0 | 9.7 | 0.00 | 0.00 | 0.00 | 78 | 1014.2 |
| 20260510104201 | 16 | 36 | 12.9 | 14.5 | 0.00 | 0.00 | 0.00 | 78 | 1014.2 |
| 20260510103658 | 16 | 39 | 9.7 | 11.3 | 0.00 | 0.00 | 0.00 | 77 | 1014.1 |
| 20260510103155 | 16 | 49 | 9.7 | 9.7 | 0.00 | 0.00 | 0.00 | 78 | 1014.1 |
| 20260510102655 | 16 | 15 | 8.0 | 9.7 | 0.00 | 0.00 | 0.00 | 78 | 1013.9 |
| 20260510102151 | 16 | 21 | 8.0 | 9.7 | 0.00 | 0.00 | 0.00 | 79 | 1013.9 |
| 20260510101648 | 17 | 29 | 6.4 | 6.4 | 0.00 | 0.00 | 0.00 | 77 | 1013.9 |
| 20260510101147 | 16 | 79 | 4.8 | 4.8 | 0.00 | 0.00 | 0.00 | 79 | 1013.8 |
| 20260510100642 | 16 | 68 | 3.2 | 3.2 | 0.00 | 0.00 | 0.00 | 79 | 1014.2 |
| 20260510100140 | 17 | 78 | 3.2 | 3.2 | 0.00 | 0.00 | 0.00 | 77 | 1013.9 |
| 20260510095635 | 16 | 33 | 6.4 | 6.4 | 0.00 | 0.00 | 0.00 | 78 | 1014.1 |
| 20260510095130 | 16 | 85 | 3.2 | 3.2 | 0.00 | 0.00 | 0.00 | 78 | 1013.5 |
| 20260510094624 | 16 | 103 | 3.2 | 3.2 | 0.00 | 0.00 | 0.00 | 79 | 1013.7 |
| 20260510094119 | 16 | 131 | 0.0 | 0.0 | 0.00 | 0.00 | 0.00 | 79 | 1013.7 |
| 20260510093616 | 17 | 131 | 1.6 | 1.6 | 0.00 | 0.00 | 0.00 | 78 | 1013.6 |
| 20260510093113 | 17 | 131 | 0.0 | 0.0 | 0.00 | 0.00 | 0.00 | 76 | 1013.6 |
| 20260510092610 | 17 | 131 | 0.0 | 0.0 | 0.00 | 0.00 | 0.00 | 75 | 1013.4 |
| 20260510092109 | 17 | 131 | 0.0 | 0.0 | 0.00 | 0.00 | 0.00 | 75 | 1013.3 |
| 20260510091606 | 17 | 130 | 1.6 | 1.6 | 0.00 | 0.00 | 0.00 | 72 | 1012.9 |
| 20260510091102 | 17 | 131 | 1.6 | 1.6 | 0.00 | 0.00 | 0.00 | 72 | 1013.1 |
| 20260510090559 | 17 | 132 | 1.6 | 1.6 | 0.00 | 0.00 | 0.00 | 73 | 1012.9 |
| 20260510090055 | 17 | 133 | 0.0 | 0.0 | 0.00 | 0.00 | 0.00 | 73 | 1012.7 |
| 20260510085550 | 17 | 131 | 0.0 | 0.0 | 0.00 | 0.00 | 0.00 | 73 | 1012.7 |
| 20260510085046 | 17 | 127 | 1.6 | 1.6 | 0.00 | 0.00 | 0.00 | 71 | 1012.8 |
| 20260510084543 | 17 | 127 | 3.2 | 3.2 | 0.00 | 0.00 | 0.00 | 71 | 1012.6 |
| 20260510084040 | 18 | 134 | 0.0 | 0.0 | 0.00 | 0.00 | 0.00 | 71 | 1012.7 |
| 20260510083536 | 18 | 85 | 3.2 | 4.8 | 0.00 | 0.00 | 0.00 | 69 | 1012.8 |
| 20260510083033 | 18 | 54 | 3.2 | 3.2 | 0.00 | 0.00 | 0.00 | 69 | 1012.5 |
| 20260510082529 | 18 | 55 | 3.2 | 4.8 | 0.00 | 0.00 | 0.00 | 69 | 1012.4 |
| 20260510082025 | 18 | 121 | 1.6 | 3.2 | 0.00 | 0.00 | 0.00 | 69 | 1012.6 |
| 20260510081520 | 18 | 151 | 1.6 | 1.6 | 0.00 | 0.00 | 0.00 | 69 | 1012.5 |
| 20260510081016 | 18 | 56 | 3.2 | 4.8 | 0.00 | 0.00 | 0.00 | 70 | 1012.5 |
| 20260510080515 | 18 | 82 | 3.2 | 3.2 | 0.00 | 0.00 | 0.00 | 72 | 1012.6 |
| 20260510080012 | 18 | 137 | 1.6 | 1.6 | 0.00 | 0.00 | 0.00 | 72 | 1012.4 |
| 20260510075509 | 18 | 129 | 1.6 | 3.2 | 0.00 | 0.00 | 0.00 | 72 | 1012.5 |
| 20260510075006 | 18 | 134 | 0.0 | 1.6 | 0.00 | 0.00 | 0.00 | 72 | 1012.5 |
| 20260510074504 | 18 | 117 | 3.2 | 3.2 | 0.00 | 0.00 | 0.00 | 72 | 1012.8 |
| 20260510073959 | 18 | 118 | 3.2 | 3.2 | 0.00 | 0.00 | 0.00 | 73 | 1012.8 |
| 20260510073455 | 18 | 152 | 0.0 | 1.6 | 0.00 | 0.00 | 0.00 | 71 | 1012.7 |
| 20260510072952 | 18 | 152 | 1.6 | 1.6 | 0.00 | 0.00 | 0.00 | 70 | 1012.7 |
| 20260510072449 | 18 | 149 | 1.6 | 1.6 | 0.00 | 0.00 | 0.00 | 70 | 1012.6 |
| 20260510071944 | 18 | 17 | 6.4 | 9.7 | 0.00 | 0.00 | 0.00 | 71 | 1012.6 |
| 20260510071441 | 18 | 13 | 8.0 | 9.7 | 0.00 | 0.00 | 0.00 | 71 | 1012.7 |
| 20260510070939 | 18 | 350 | 8.0 | 11.3 | 0.00 | 0.00 | 0.00 | 71 | 1012.5 |
| 20260510070436 | 18 | 0 | 11.3 | 12.9 | 0.00 | 0.00 | 0.00 | 69 | 1012.4 |
| 20260510065932 | 18 | 209 | 1.6 | 1.6 | 0.00 | 0.00 | 0.00 | 74 | 1012.6 |
| 20260510065429 | 18 | 203 | 3.2 | 3.2 | 0.00 | 0.00 | 0.00 | 71 | 1012.4 |
| 20260510064925 | 19 | 267 | 3.2 | 4.8 | 0.00 | 0.00 | 0.00 | 67 | 1012.4 |
| 20260510064423 | 20 | 194 | 1.6 | 1.6 | 0.00 | 0.00 | 0.00 | 64 | 1011.7 |
| 20260510063919 | 20 | 190 | 1.6 | 1.6 | 0.00 | 0.00 | 0.00 | 64 | 1011.5 |
| 20260510063414 | 20 | 180 | 3.2 | 4.8 | 0.00 | 0.00 | 0.00 | 64 | 1011.7 |
| 20260510062912 | 20 | 217 | 6.4 | 9.7 | 0.00 | 0.00 | 0.00 | 65 | 1011.6 |
| 20260510062407 | 20 | 169 | 4.8 | 4.8 | 0.00 | 0.00 | 0.00 | 64 | 1011.5 |
| 20260510061858 | 20 | 186 | 6.4 | 6.4 | 0.00 | 0.00 | 0.00 | 64 | 1011.7 |
| 20260510061354 | 20 | 146 | 8.0 | 11.3 | 0.00 | 0.00 | 0.00 | 64 | 1011.3 |
| 20260510060850 | 20 | 173 | 8.0 | 11.3 | 0.00 | 0.00 | 0.00 | 63 | 1011.5 |
| 20260510060347 | 20 | 174 | 8.0 | 11.3 | 0.00 | 0.00 | 0.00 | 61 | 1011.7 |
| 20260510055843 | 20 | 178 | 4.8 | 6.4 | 0.00 | 0.00 | 0.00 | 63 | 1011.5 |
| 20260510055342 | 20 | 166 | 8.0 | 11.3 | 0.00 | 0.00 | 0.00 | 63 | 1012.1 |
| 20260510054836 | 20 | 198 | 4.8 | 6.4 | 0.00 | 0.00 | 0.00 | 66 | 1012.1 |
| 20260510054332 | 19 | 207 | 3.2 | 4.8 | 0.00 | 0.00 | 0.00 | 70 | 1012.3 |
| 20260510053827 | 18 | 191 | 6.4 | 9.7 | 0.00 | 0.00 | 0.00 | 72 | 1012.4 |
| 20260510053322 | 18 | 180 | 4.8 | 4.8 | 0.00 | 0.00 | 0.00 | 74 | 1012.5 |
| 20260510052819 | 18 | 170 | 3.2 | 4.8 | 0.00 | 0.00 | 0.00 | 79 | 1012.5 |
| 20260510052316 | 17 | 188 | 1.6 | 1.6 | 0.00 | 0.00 | 0.00 | 83 | 1012.8 |
| 20260510051812 | 17 | 208 | 1.6 | 1.6 | 0.00 | 0.00 | 0.00 | 85 | 1012.8 |
| 20260510051309 | 17 | 208 | 1.6 | 1.6 | 0.00 | 0.00 | 0.00 | 87 | 1012.9 |
| 20260510050806 | 17 | 192 | 1.6 | 1.6 | 0.00 | 0.00 | 0.00 | 87 | 1013.0 |
| 20260510050303 | 17 | 189 | 1.6 | 1.6 | 0.00 | 0.00 | 0.00 | 88 | 1012.8 |
| 20260510045800 | 17 | 189 | 0.0 | 0.0 | 0.00 | 0.00 | 0.00 | 87 | 1012.6 |
| 20260510045256 | 17 | 189 | 0.0 | 0.0 | 0.00 | 0.00 | 0.00 | 86 | 1012.7 |
| 20260510044754 | 17 | 189 | 0.0 | 0.0 | 0.00 | 0.00 | 0.00 | 85 | 1012.5 |
| 20260510044250 | 17 | 189 | 0.0 | 0.0 | 0.00 | 0.00 | 0.00 | 84 | 1012.5 |
| 20260510043746 | 17 | 189 | 0.0 | 0.0 | 0.00 | 0.00 | 0.00 | 84 | 1012.4 |
| 20260510043242 | 17 | 189 | 0.0 | 0.0 | 0.00 | 0.00 | 0.00 | 83 | 1012.1 |
| 20260510042740 | 17 | 189 | 0.0 | 0.0 | 0.00 | 0.00 | 0.00 | 82 | 1012.2 |
| 20260510042235 | 17 | 189 | 0.0 | 0.0 | 0.00 | 0.00 | 0.00 | 81 | 1012.4 |
| 20260510041732 | 17 | 189 | 1.6 | 3.2 | 0.00 | 0.00 | 0.00 | 80 | 1012.2 |
| 20260510041230 | 16 | 190 | 0.0 | 1.6 | 0.00 | 0.00 | 0.00 | 82 | 1012.2 |
| 20260510040726 | 16 | 190 | 0.0 | 0.0 | 0.00 | 0.00 | 0.00 | 84 | 1012.5 |
| 20260510040223 | 16 | 190 | 0.0 | 0.0 | 0.00 | 0.00 | 0.00 | 83 | 1012.2 |
| 20260510035719 | 16 | 190 | 0.0 | 0.0 | 0.00 | 0.03 | 0.03 | 84 | 1012.4 |
| 20260510035215 | 16 | 190 | 0.0 | 0.0 | 0.00 | 0.03 | 0.03 | 83 | 1012.3 |
| 20260510034711 | 17 | 190 | 0.0 | 0.0 | 0.00 | 0.03 | 0.03 | 83 | 1012.1 |
| 20260510034208 | 16 | 190 | 0.0 | 0.0 | 0.00 | 0.03 | 0.03 | 84 | 1011.9 |
| 20260510033659 | 17 | 190 | 0.0 | 0.0 | 0.00 | 0.03 | 0.03 | 82 | 1011.9 |
| 20260510033158 | 17 | 190 | 0.0 | 0.0 | 0.00 | 0.03 | 0.03 | 81 | 1011.8 |
| 20260510032653 | 16 | 190 | 0.0 | 0.0 | 0.00 | 0.03 | 0.03 | 83 | 1012.1 |
| 20260510032148 | 16 | 190 | 0.0 | 0.0 | 0.00 | 0.03 | 0.03 | 82 | 1011.9 |
| 20260510031643 | 16 | 190 | 0.0 | 0.0 | 0.00 | 0.03 | 0.03 | 81 | 1011.6 |
| 20260510031140 | 16 | 190 | 0.0 | 0.0 | 0.00 | 0.03 | 0.03 | 81 | 1011.5 |
| 20260510030635 | 16 | 190 | 0.0 | 0.0 | 0.00 | 0.03 | 0.03 | 82 | 1011.5 |
| 20260510030133 | 17 | 190 | 0.0 | 0.0 | 0.00 | 0.03 | 0.03 | 80 | 1011.5 |
| 20260510025630 | 17 | 190 | 0.0 | 0.0 | 0.00 | 0.03 | 0.03 | 78 | 1011.3 |
| 20260510025127 | 18 | 190 | 0.0 | 0.0 | 0.00 | 0.03 | 0.03 | 75 | 1011.0 |
| 20260510024624 | 18 | 190 | 0.0 | 0.0 | 0.00 | 0.03 | 0.03 | 73 | 1011.0 |
| 20260510024120 | 18 | 190 | 0.0 | 0.0 | 0.00 | 0.03 | 0.03 | 73 | 1011.1 |
| 20260510023616 | 18 | 190 | 0.0 | 0.0 | 0.00 | 0.03 | 0.03 | 72 | 1011.3 |
| 20260510023114 | 18 | 190 | 0.0 | 0.0 | 0.00 | 0.03 | 0.03 | 71 | 1011.0 |
| 20260510022613 | 18 | 190 | 0.0 | 0.0 | 0.00 | 0.03 | 0.03 | 72 | 1011.1 |
| 20260510022108 | 17 | 190 | 0.0 | 0.0 | 0.00 | 0.03 | 0.03 | 73 | 1010.8 |
| 20260510021605 | 18 | 190 | 0.0 | 0.0 | 0.00 | 0.03 | 0.03 | 71 | 1010.7 |
| 20260510021102 | 18 | 190 | 0.0 | 0.0 | 0.00 | 0.03 | 0.03 | 69 | 1010.4 |
| 20260510020555 | 19 | 190 | 0.0 | 0.0 | 0.00 | 0.03 | 0.03 | 66 | 1010.2 |
| 20260510020051 | 18 | 190 | 0.0 | 0.0 | 0.00 | 0.03 | 0.03 | 66 | 1010.1 |
| 20260510015548 | 18 | 190 | 0.0 | 0.0 | 0.00 | 0.03 | 0.03 | 67 | 1010.1 |
| 20260510015044 | 19 | 190 | 0.0 | 0.0 | 0.00 | 0.03 | 0.03 | 66 | 1009.9 |
| 20260510014540 | 20 | 190 | 0.0 | 0.0 | 0.00 | 0.03 | 0.03 | 64 | 1009.8 |
| 20260510014037 | 20 | 190 | 0.0 | 0.0 | 0.00 | 0.03 | 0.03 | 62 | 1009.8 |
| 20260510013531 | 21 | 190 | 0.0 | 0.0 | 0.00 | 0.03 | 0.03 | 61 | 1009.6 |
| 20260510013028 | 21 | 190 | 0.0 | 0.0 | 0.00 | 0.03 | 0.03 | 59 | 1009.6 |
| 20260510012522 | 22 | 190 | 0.0 | 0.0 | 0.00 | 0.03 | 0.03 | 55 | 1009.5 |
| 20260510012019 | 21 | 190 | 0.0 | 0.0 | 0.00 | 0.03 | 0.03 | 58 | 1009.5 |
| 20260510011518 | 22 | 190 | 0.0 | 0.0 | 0.00 | 0.03 | 0.03 | 57 | 1009.4 |
| 20260510011013 | 22 | 190 | 0.0 | 0.0 | 0.00 | 0.03 | 0.03 | 55 | 1009.2 |
| 20260510010511 | 23 | 190 | 0.0 | 0.0 | 0.00 | 0.03 | 0.03 | 53 | 1009.1 |
| 20260510010008 | 23 | 190 | 0.0 | 0.0 | 0.00 | 0.03 | 0.03 | 51 | 1009.0 |
| 20260510005503 | 24 | 190 | 0.0 | 1.6 | 0.00 | 0.03 | 0.03 | 49 | 1009.0 |
| 20260510005002 | 25 | 192 | 0.0 | 1.6 | 0.00 | 0.03 | 0.03 | 46 | 1009.1 |
| 20260510004458 | 25 | 193 | 1.6 | 1.6 | 0.00 | 0.03 | 0.03 | 46 | 1008.9 |
| 20260510003957 | 25 | 186 | 1.6 | 1.6 | 0.00 | 0.03 | 0.03 | 45 | 1008.9 |
| 20260510003453 | 25 | 195 | 1.6 | 3.2 | 0.00 | 0.03 | 0.03 | 45 | 1009.0 |
| 20260510002948 | 25 | 200 | 3.2 | 3.2 | 0.00 | 0.03 | 0.03 | 44 | 1009.0 |
| 20260510002444 | 26 | 197 | 3.2 | 3.2 | 0.00 | 0.03 | 0.03 | 44 | 1009.0 |
| 20260510001941 | 26 | 202 | 4.8 | 4.8 | 0.00 | 0.03 | 0.03 | 43 | 1009.1 |
| 20260510001438 | 26 | 219 | 4.8 | 4.8 | 0.00 | 0.03 | 0.03 | 44 | 1009.0 |
| 20260510000936 | 26 | 189 | 4.8 | 4.8 | 0.00 | 0.03 | 0.03 | 42 | 1008.9 |
| 20260510000433 | 26 | 178 | 1.6 | 1.6 | 0.00 | 0.03 | 0.03 | 43 | 1009.0 |
| 20260509235929 | 26 | 194 | 8.0 | 9.7 | 0.00 | 0.03 | 0.03 | 42 | 1009.1 |
| 20260509235426 | 26 | 215 | 6.4 | 6.4 | 0.00 | 0.03 | 0.03 | 41 | 1009.0 |
| 20260509234922 | 27 | 211 | 6.4 | 6.4 | 0.00 | 0.03 | 0.03 | 42 | 1009.2 |
| 20260509234419 | 27 | 163 | 11.3 | 14.5 | 0.00 | 0.03 | 0.03 | 41 | 1009.2 |
| 20260509233917 | 27 | 154 | 4.8 | 6.4 | 0.00 | 0.03 | 0.03 | 38 | 1009.1 |
| 20260509233414 | 27 | 196 | 8.0 | 9.7 | 0.00 | 0.03 | 0.03 | 37 | 1009.1 |
| 20260509232910 | 27 | 160 | 6.4 | 9.7 | 0.00 | 0.03 | 0.03 | 35 | 1009.0 |
| 20260509232403 | 27 | 208 | 4.8 | 6.4 | 0.00 | 0.03 | 0.03 | 36 | 1009.2 |
| 20260509231858 | 27 | 195 | 8.0 | 9.7 | 0.00 | 0.03 | 0.03 | 36 | 1009.0 |
| 20260509231355 | 27 | 230 | 6.4 | 6.4 | 0.00 | 0.03 | 0.03 | 38 | 1009.2 |
| 20260509230853 | 27 | 159 | 3.2 | 4.8 | 0.00 | 0.03 | 0.03 | 38 | 1009.2 |
| 20260509230350 | 27 | 185 | 9.7 | 11.3 | 0.00 | 0.03 | 0.03 | 37 | 1009.2 |
| 20260509225845 | 27 | 221 | 6.4 | 9.7 | 0.00 | 0.03 | 0.03 | 38 | 1009.0 |
| 20260509225342 | 27 | 259 | 6.4 | 9.7 | 0.00 | 0.03 | 0.03 | 37 | 1009.1 |
| 20260509224838 | 27 | 197 | 6.4 | 6.4 | 0.00 | 0.03 | 0.03 | 36 | 1008.9 |
| 20260509224334 | 27 | 180 | 1.6 | 1.6 | 0.00 | 0.03 | 0.03 | 37 | 1009.0 |
| 20260509223831 | 27 | 168 | 6.4 | 9.7 | 0.00 | 0.03 | 0.03 | 38 | 1009.2 |
| 20260509223327 | 27 | 215 | 9.7 | 11.3 | 0.00 | 0.03 | 0.03 | 36 | 1009.2 |
| 20260509222824 | 27 | 223 | 9.7 | 11.3 | 0.00 | 0.03 | 0.03 | 36 | 1009.3 |
| 20260509222320 | 27 | 199 | 9.7 | 14.5 | 0.00 | 0.03 | 0.03 | 38 | 1009.0 |
| 20260509221815 | 27 | 195 | 4.8 | 4.8 | 0.00 | 0.03 | 0.03 | 37 | 1009.1 |
| 20260509221314 | 27 | 223 | 9.7 | 11.3 | 0.00 | 0.03 | 0.03 | 37 | 1009.1 |
| 20260509220814 | 27 | 223 | 4.8 | 4.8 | 0.00 | 0.03 | 0.03 | 37 | 1009.4 |
| 20260509220310 | 27 | 178 | 4.8 | 6.4 | 0.00 | 0.03 | 0.03 | 38 | 1009.1 |
| 20260509215806 | 27 | 209 | 3.2 | 4.8 | 0.00 | 0.03 | 0.03 | 37 | 1009.3 |
| 20260509215305 | 27 | 182 | 6.4 | 6.4 | 0.00 | 0.03 | 0.03 | 37 | 1009.4 |
| 20260509214759 | 28 | 238 | 4.8 | 4.8 | 0.00 | 0.03 | 0.03 | 36 | 1009.2 |
| 20260509214257 | 28 | 265 | 6.4 | 6.4 | 0.00 | 0.03 | 0.03 | 34 | 1009.3 |
| 20260509213754 | 28 | 208 | 4.8 | 4.8 | 0.00 | 0.03 | 0.03 | 34 | 1009.3 |
| 20260509213249 | 28 | 221 | 6.4 | 9.7 | 0.00 | 0.03 | 0.03 | 34 | 1009.4 |
| 20260509212747 | 28 | 259 | 6.4 | 9.7 | 0.00 | 0.03 | 0.03 | 36 | 1009.3 |
| 20260509212244 | 28 | 176 | 3.2 | 4.8 | 0.00 | 0.03 | 0.03 | 35 | 1009.3 |
| 20260509211739 | 27 | 178 | 4.8 | 4.8 | 0.00 | 0.03 | 0.03 | 35 | 1009.4 |
| 20260509211236 | 28 | 195 | 6.4 | 6.4 | 0.00 | 0.03 | 0.03 | 35 | 1009.5 |
| 20260509210732 | 28 | 179 | 1.6 | 1.6 | 0.00 | 0.03 | 0.03 | 32 | 1009.8 |
| 20260509210231 | 28 | 238 | 6.4 | 6.4 | 0.00 | 0.03 | 0.03 | 33 | 1009.6 |
| 20260509205730 | 28 | 155 | 1.6 | 1.6 | 0.00 | 0.03 | 0.03 | 33 | 1009.5 |
| 20260509205229 | 29 | 336 | 4.8 | 4.8 | 0.00 | 0.03 | 0.03 | 35 | 1009.4 |
| 20260509204726 | 28 | 246 | 3.2 | 6.4 | 0.00 | 0.03 | 0.03 | 38 | 1009.8 |
| 20260509204222 | 28 | 230 | 1.6 | 3.2 | 0.00 | 0.03 | 0.03 | 32 | 1009.8 |
| 20260509203718 | 28 | 188 | 1.6 | 1.6 | 0.00 | 0.03 | 0.03 | 36 | 1009.9 |
| 20260509203217 | 29 | 4 | 3.2 | 4.8 | 0.00 | 0.03 | 0.03 | 34 | 1010.1 |
| 20260509202712 | 28 | 206 | 3.2 | 4.8 | 0.00 | 0.03 | 0.03 | 37 | 1009.9 |
| 20260509202207 | 27 | 203 | 3.2 | 3.2 | 0.00 | 0.03 | 0.03 | 36 | 1009.9 |
| 20260509201703 | 27 | 206 | 14.5 | 16.1 | 0.00 | 0.03 | 0.03 | 38 | 1010.1 |
| 20260509201200 | 28 | 202 | 3.2 | 4.8 | 0.00 | 0.03 | 0.03 | 36 | 1010.1 |
| 20260509200656 | 28 | 222 | 4.8 | 6.4 | 0.00 | 0.03 | 0.03 | 37 | 1009.9 |
| 20260509200151 | 28 | 204 | 1.6 | 1.6 | 0.00 | 0.03 | 0.03 | 38 | 1010.0 |
| 20260509195647 | 27 | 177 | 9.7 | 11.3 | 0.00 | 0.03 | 0.03 | 38 | 1010.2 |
| 20260509195142 | 28 | 188 | 4.8 | 6.4 | 0.00 | 0.03 | 0.03 | 39 | 1010.1 |
| 20260509194637 | 28 | 170 | 9.7 | 11.3 | 0.00 | 0.03 | 0.03 | 37 | 1010.4 |
| 20260509194134 | 27 | 234 | 4.8 | 4.8 | 0.00 | 0.03 | 0.03 | 40 | 1010.1 |
| 20260509193629 | 27 | 214 | 6.4 | 9.7 | 0.00 | 0.03 | 0.03 | 40 | 1010.1 |
| 20260509193125 | 27 | 208 | 4.8 | 4.8 | 0.00 | 0.03 | 0.03 | 41 | 1010.2 |
| 20260509192623 | 27 | 207 | 4.8 | 6.4 | 0.00 | 0.03 | 0.03 | 39 | 1010.2 |
| 20260509192117 | 27 | 222 | 8.0 | 9.7 | 0.00 | 0.03 | 0.03 | 40 | 1010.2 |
| 20260509191612 | 27 | 222 | 11.3 | 12.9 | 0.00 | 0.03 | 0.03 | 42 | 1010.4 |
| 20260509191109 | 27 | 247 | 9.7 | 11.3 | 0.00 | 0.03 | 0.03 | 47 | 1010.1 |